sensor_id;sensor_type;location;lat;lon;timestamp;P1;durP1;ratioP1;P2;durP2;ratioP2
42296;SDS011;28985;47.456;19.016;2022-07-11T00:01:44;3.75;;;3.45;;
42296;SDS011;28985;47.456;19.016;2022-07-11T00:04:11;3.72;;;3.55;;
42296;SDS011;28985;47.456;19.016;2022-07-11T00:06:37;3.22;;;3.13;;
42296;SDS011;28985;47.456;19.016;2022-07-11T00:09:04;3.30;;;3.10;;
42296;SDS011;28985;47.456;19.016;2022-07-11T00:11:31;2.83;;;2.72;;
42296;SDS011;28985;47.456;19.016;2022-07-11T00:13:57;2.67;;;2.47;;
42296;SDS011;28985;47.456;19.016;2022-07-11T00:16:25;2.75;;;2.65;;
42296;SDS011;28985;47.456;19.016;2022-07-11T00:18:52;3.13;;;2.80;;
42296;SDS011;28985;47.456;19.016;2022-07-11T00:21:19;2.55;;;2.28;;
42296;SDS011;28985;47.456;19.016;2022-07-11T00:23:45;1.65;;;1.65;;
42296;SDS011;28985;47.456;19.016;2022-07-11T00:26:12;2.00;;;2.00;;
42296;SDS011;28985;47.456;19.016;2022-07-11T00:28:38;3.05;;;2.72;;
42296;SDS011;28985;47.456;19.016;2022-07-11T00:31:05;2.40;;;2.30;;
42296;SDS011;28985;47.456;19.016;2022-07-11T00:33:34;2.15;;;2.05;;
42296;SDS011;28985;47.456;19.016;2022-07-11T00:36:00;2.55;;;2.42;;
42296;SDS011;28985;47.456;19.016;2022-07-11T00:38:27;2.25;;;2.15;;
42296;SDS011;28985;47.456;19.016;2022-07-11T00:40:53;3.53;;;1.52;;
42296;SDS011;28985;47.456;19.016;2022-07-11T00:43:28;1.65;;;1.60;;
42296;SDS011;28985;47.456;19.016;2022-07-11T00:45:56;2.00;;;1.90;;
42296;SDS011;28985;47.456;19.016;2022-07-11T00:48:22;2.40;;;2.20;;
42296;SDS011;28985;47.456;19.016;2022-07-11T00:50:49;2.22;;;1.58;;
42296;SDS011;28985;47.456;19.016;2022-07-11T00:53:17;1.90;;;1.35;;
42296;SDS011;28985;47.456;19.016;2022-07-11T00:55:45;1.90;;;1.58;;
42296;SDS011;28985;47.456;19.016;2022-07-11T00:58:12;2.45;;;1.52;;
42296;SDS011;28985;47.456;19.016;2022-07-11T01:00:40;4.85;;;1.60;;
42296;SDS011;28985;47.456;19.016;2022-07-11T01:03:07;1.65;;;1.50;;
42296;SDS011;28985;47.456;19.016;2022-07-11T01:05:33;1.48;;;1.10;;
42296;SDS011;28985;47.456;19.016;2022-07-11T01:08:00;2.22;;;1.48;;
42296;SDS011;28985;47.456;19.016;2022-07-11T01:10:27;1.02;;;0.85;;
42296;SDS011;28985;47.456;19.016;2022-07-11T01:12:54;1.20;;;1.10;;
42296;SDS011;28985;47.456;19.016;2022-07-11T01:15:21;1.05;;;1.05;;
42296;SDS011;28985;47.456;19.016;2022-07-11T01:17:47;3.05;;;0.80;;
42296;SDS011;28985;47.456;19.016;2022-07-11T01:20:14;2.42;;;1.00;;
42296;SDS011;28985;47.456;19.016;2022-07-11T01:22:47;1.17;;;0.75;;
42296;SDS011;28985;47.456;19.016;2022-07-11T01:25:17;1.75;;;0.73;;
42296;SDS011;28985;47.456;19.016;2022-07-11T01:30:31;0.80;;;0.80;;
42296;SDS011;28985;47.456;19.016;2022-07-11T01:32:59;1.65;;;0.82;;
42296;SDS011;28985;47.456;19.016;2022-07-11T01:35:26;2.00;;;0.88;;
42296;SDS011;28985;47.456;19.016;2022-07-11T01:37:54;1.52;;;0.93;;
42296;SDS011;28985;47.456;19.016;2022-07-11T01:40:27;1.20;;;1.05;;
42296;SDS011;28985;47.456;19.016;2022-07-11T01:42:54;0.80;;;0.80;;
42296;SDS011;28985;47.456;19.016;2022-07-11T01:45:20;1.45;;;0.70;;
42296;SDS011;28985;47.456;19.016;2022-07-11T01:47:47;1.08;;;0.80;;
42296;SDS011;28985;47.456;19.016;2022-07-11T01:50:13;2.85;;;0.80;;
42296;SDS011;28985;47.456;19.016;2022-07-11T01:52:40;1.27;;;0.75;;
42296;SDS011;28985;47.456;19.016;2022-07-11T01:55:07;1.40;;;0.70;;
42296;SDS011;28985;47.456;19.016;2022-07-11T01:57:34;1.20;;;0.82;;
42296;SDS011;28985;47.456;19.016;2022-07-11T02:00:00;1.95;;;1.15;;
42296;SDS011;28985;47.456;19.016;2022-07-11T02:02:28;2.72;;;0.60;;
42296;SDS011;28985;47.456;19.016;2022-07-11T02:04:55;1.60;;;0.70;;
42296;SDS011;28985;47.456;19.016;2022-07-11T02:07:21;2.72;;;0.70;;
42296;SDS011;28985;47.456;19.016;2022-07-11T02:10:08;2.90;;;0.90;;
42296;SDS011;28985;47.456;19.016;2022-07-11T02:12:35;0.68;;;0.65;;
42296;SDS011;28985;47.456;19.016;2022-07-11T02:15:01;3.92;;;1.98;;
42296;SDS011;28985;47.456;19.016;2022-07-11T02:17:28;1.50;;;1.00;;
42296;SDS011;28985;47.456;19.016;2022-07-11T02:19:55;0.77;;;0.70;;
42296;SDS011;28985;47.456;19.016;2022-07-11T02:22:21;1.13;;;0.93;;
42296;SDS011;28985;47.456;19.016;2022-07-11T02:24:48;2.08;;;0.90;;
42296;SDS011;28985;47.456;19.016;2022-07-11T02:27:14;4.65;;;0.85;;
42296;SDS011;28985;47.456;19.016;2022-07-11T02:29:41;4.80;;;1.67;;
42296;SDS011;28985;47.456;19.016;2022-07-11T02:32:07;5.07;;;1.20;;
42296;SDS011;28985;47.456;19.016;2022-07-11T02:34:34;3.92;;;2.15;;
42296;SDS011;28985;47.456;19.016;2022-07-11T02:37:01;5.57;;;1.30;;
42296;SDS011;28985;47.456;19.016;2022-07-11T02:39:27;4.57;;;1.13;;
42296;SDS011;28985;47.456;19.016;2022-07-11T02:41:54;0.85;;;0.85;;
42296;SDS011;28985;47.456;19.016;2022-07-11T02:44:20;10.32;;;2.38;;
42296;SDS011;28985;47.456;19.016;2022-07-11T02:46:47;4.07;;;1.15;;
42296;SDS011;28985;47.456;19.016;2022-07-11T02:49:13;10.00;;;1.98;;
42296;SDS011;28985;47.456;19.016;2022-07-11T02:51:40;4.45;;;1.67;;
42296;SDS011;28985;47.456;19.016;2022-07-11T02:54:06;2.97;;;1.10;;
42296;SDS011;28985;47.456;19.016;2022-07-11T02:56:33;3.13;;;1.05;;
42296;SDS011;28985;47.456;19.016;2022-07-11T02:58:59;1.00;;;0.90;;
42296;SDS011;28985;47.456;19.016;2022-07-11T03:01:26;1.98;;;0.93;;
42296;SDS011;28985;47.456;19.016;2022-07-11T03:03:53;2.47;;;1.17;;
42296;SDS011;28985;47.456;19.016;2022-07-11T03:06:20;2.35;;;1.00;;
42296;SDS011;28985;47.456;19.016;2022-07-11T03:08:46;3.08;;;1.13;;
42296;SDS011;28985;47.456;19.016;2022-07-11T03:11:14;1.65;;;0.95;;
42296;SDS011;28985;47.456;19.016;2022-07-11T03:13:41;2.05;;;1.48;;
42296;SDS011;28985;47.456;19.016;2022-07-11T03:16:08;4.13;;;1.10;;
42296;SDS011;28985;47.456;19.016;2022-07-11T03:18:35;3.60;;;0.95;;
42296;SDS011;28985;47.456;19.016;2022-07-11T03:21:01;0.77;;;0.77;;
42296;SDS011;28985;47.456;19.016;2022-07-11T03:23:28;3.90;;;0.98;;
42296;SDS011;28985;47.456;19.016;2022-07-11T03:25:55;1.60;;;1.05;;
42296;SDS011;28985;47.456;19.016;2022-07-11T03:28:21;0.77;;;0.75;;
42296;SDS011;28985;47.456;19.016;2022-07-11T03:30:48;1.05;;;0.80;;
42296;SDS011;28985;47.456;19.016;2022-07-11T03:33:14;3.05;;;1.00;;
42296;SDS011;28985;47.456;19.016;2022-07-11T03:35:41;2.42;;;1.10;;
42296;SDS011;28985;47.456;19.016;2022-07-11T03:38:08;1.40;;;0.80;;
42296;SDS011;28985;47.456;19.016;2022-07-11T03:40:35;2.67;;;1.48;;
42296;SDS011;28985;47.456;19.016;2022-07-11T03:43:02;2.38;;;1.55;;
42296;SDS011;28985;47.456;19.016;2022-07-11T03:45:29;4.57;;;0.93;;
42296;SDS011;28985;47.456;19.016;2022-07-11T03:47:56;2.05;;;0.90;;
42296;SDS011;28985;47.456;19.016;2022-07-11T03:50:22;3.05;;;1.00;;
42296;SDS011;28985;47.456;19.016;2022-07-11T03:52:49;2.40;;;1.15;;
42296;SDS011;28985;47.456;19.016;2022-07-11T03:55:15;3.72;;;0.88;;
42296;SDS011;28985;47.456;19.016;2022-07-11T03:57:42;1.38;;;1.00;;
42296;SDS011;28985;47.456;19.016;2022-07-11T04:00:09;7.50;;;2.40;;
42296;SDS011;28985;47.456;19.016;2022-07-11T04:02:36;1.40;;;1.08;;
42296;SDS011;28985;47.456;19.016;2022-07-11T04:05:03;4.32;;;1.08;;
42296;SDS011;28985;47.456;19.016;2022-07-11T04:07:30;2.40;;;0.70;;
42296;SDS011;28985;47.456;19.016;2022-07-11T04:09:57;4.55;;;1.73;;
42296;SDS011;28985;47.456;19.016;2022-07-11T04:12:23;2.47;;;0.75;;
42296;SDS011;28985;47.456;19.016;2022-07-11T04:14:50;3.00;;;0.93;;
42296;SDS011;28985;47.456;19.016;2022-07-11T04:17:16;1.58;;;0.85;;
42296;SDS011;28985;47.456;19.016;2022-07-11T04:19:43;1.60;;;0.60;;
42296;SDS011;28985;47.456;19.016;2022-07-11T04:22:10;2.72;;;0.80;;
42296;SDS011;28985;47.456;19.016;2022-07-11T04:24:36;1.30;;;1.10;;
42296;SDS011;28985;47.456;19.016;2022-07-11T04:27:04;2.08;;;0.70;;
42296;SDS011;28985;47.456;19.016;2022-07-11T04:29:31;1.40;;;0.75;;
42296;SDS011;28985;47.456;19.016;2022-07-11T04:31:58;2.67;;;1.20;;
42296;SDS011;28985;47.456;19.016;2022-07-11T04:34:24;4.40;;;0.88;;
42296;SDS011;28985;47.456;19.016;2022-07-11T04:36:51;0.98;;;0.80;;
42296;SDS011;28985;47.456;19.016;2022-07-11T04:39:17;2.10;;;1.00;;
42296;SDS011;28985;47.456;19.016;2022-07-11T04:41:44;3.75;;;1.30;;
42296;SDS011;28985;47.456;19.016;2022-07-11T04:44:10;3.00;;;1.08;;
42296;SDS011;28985;47.456;19.016;2022-07-11T04:46:37;3.78;;;1.27;;
42296;SDS011;28985;47.456;19.016;2022-07-11T04:49:04;2.95;;;1.20;;
42296;SDS011;28985;47.456;19.016;2022-07-11T04:51:31;2.03;;;1.17;;
42296;SDS011;28985;47.456;19.016;2022-07-11T04:53:57;3.83;;;2.45;;
42296;SDS011;28985;47.456;19.016;2022-07-11T04:56:24;2.25;;;1.10;;
42296;SDS011;28985;47.456;19.016;2022-07-11T04:58:51;2.35;;;1.20;;
42296;SDS011;28985;47.456;19.016;2022-07-11T05:01:17;3.75;;;2.67;;
42296;SDS011;28985;47.456;19.016;2022-07-11T05:03:44;1.42;;;1.23;;
42296;SDS011;28985;47.456;19.016;2022-07-11T05:06:12;3.13;;;1.40;;
42296;SDS011;28985;47.456;19.016;2022-07-11T05:08:38;1.75;;;1.60;;
42296;SDS011;28985;47.456;19.016;2022-07-11T05:11:05;1.70;;;1.27;;
42296;SDS011;28985;47.456;19.016;2022-07-11T05:13:31;3.28;;;1.77;;
42296;SDS011;28985;47.456;19.016;2022-07-11T05:15:58;2.42;;;1.27;;
42296;SDS011;28985;47.456;19.016;2022-07-11T05:18:25;7.22;;;1.42;;
42296;SDS011;28985;47.456;19.016;2022-07-11T05:20:51;2.15;;;1.33;;
42296;SDS011;28985;47.456;19.016;2022-07-11T05:23:18;2.67;;;1.27;;
42296;SDS011;28985;47.456;19.016;2022-07-11T05:25:45;1.63;;;1.30;;
42296;SDS011;28985;47.456;19.016;2022-07-11T05:28:11;1.98;;;1.20;;
42296;SDS011;28985;47.456;19.016;2022-07-11T05:30:38;3.03;;;1.30;;
42296;SDS011;28985;47.456;19.016;2022-07-11T05:33:04;1.80;;;1.50;;
42296;SDS011;28985;47.456;19.016;2022-07-11T05:35:31;3.28;;;1.35;;
42296;SDS011;28985;47.456;19.016;2022-07-11T05:37:57;1.35;;;1.23;;
42296;SDS011;28985;47.456;19.016;2022-07-11T05:40:24;2.08;;;1.52;;
42296;SDS011;28985;47.456;19.016;2022-07-11T05:42:50;1.90;;;1.23;;
42296;SDS011;28985;47.456;19.016;2022-07-11T05:45:17;1.88;;;1.08;;
42296;SDS011;28985;47.456;19.016;2022-07-11T05:47:44;3.47;;;1.63;;
42296;SDS011;28985;47.456;19.016;2022-07-11T05:50:10;3.40;;;1.80;;
42296;SDS011;28985;47.456;19.016;2022-07-11T05:52:37;2.67;;;1.58;;
42296;SDS011;28985;47.456;19.016;2022-07-11T05:55:04;1.52;;;0.90;;
42296;SDS011;28985;47.456;19.016;2022-07-11T05:57:31;5.18;;;1.77;;
42296;SDS011;28985;47.456;19.016;2022-07-11T05:59:57;4.70;;;1.40;;
42296;SDS011;28985;47.456;19.016;2022-07-11T06:02:24;2.15;;;1.38;;
42296;SDS011;28985;47.456;19.016;2022-07-11T06:04:51;3.58;;;1.13;;
42296;SDS011;28985;47.456;19.016;2022-07-11T06:07:17;3.65;;;0.90;;
42296;SDS011;28985;47.456;19.016;2022-07-11T06:10:02;2.63;;;0.95;;
42296;SDS011;28985;47.456;19.016;2022-07-11T06:12:29;3.10;;;1.00;;
42296;SDS011;28985;47.456;19.016;2022-07-11T06:14:55;3.00;;;1.02;;
42296;SDS011;28985;47.456;19.016;2022-07-11T06:17:23;1.10;;;1.00;;
42296;SDS011;28985;47.456;19.016;2022-07-11T06:19:50;0.80;;;0.77;;
42296;SDS011;28985;47.456;19.016;2022-07-11T06:22:16;2.55;;;1.30;;
42296;SDS011;28985;47.456;19.016;2022-07-11T06:24:50;2.90;;;0.65;;
42296;SDS011;28985;47.456;19.016;2022-07-11T06:27:16;2.55;;;1.00;;
42296;SDS011;28985;47.456;19.016;2022-07-11T06:29:43;1.10;;;0.77;;
42296;SDS011;28985;47.456;19.016;2022-07-11T06:32:10;4.55;;;1.35;;
42296;SDS011;28985;47.456;19.016;2022-07-11T06:34:36;2.40;;;0.80;;
42296;SDS011;28985;47.456;19.016;2022-07-11T06:37:03;0.80;;;0.80;;
42296;SDS011;28985;47.456;19.016;2022-07-11T06:39:30;2.67;;;0.80;;
42296;SDS011;28985;47.456;19.016;2022-07-11T06:41:56;4.03;;;1.10;;
42296;SDS011;28985;47.456;19.016;2022-07-11T06:44:23;2.00;;;1.20;;
42296;SDS011;28985;47.456;19.016;2022-07-11T06:46:53;1.38;;;1.27;;
42296;SDS011;28985;47.456;19.016;2022-07-11T06:49:20;1.75;;;1.25;;
42296;SDS011;28985;47.456;19.016;2022-07-11T06:51:46;3.90;;;1.70;;
42296;SDS011;28985;47.456;19.016;2022-07-11T06:54:13;1.70;;;1.38;;
42296;SDS011;28985;47.456;19.016;2022-07-11T06:56:40;1.25;;;1.20;;
42296;SDS011;28985;47.456;19.016;2022-07-11T06:59:06;6.88;;;1.20;;
42296;SDS011;28985;47.456;19.016;2022-07-11T07:01:33;2.80;;;1.00;;
42296;SDS011;28985;47.456;19.016;2022-07-11T07:03:59;4.22;;;1.15;;
42296;SDS011;28985;47.456;19.016;2022-07-11T07:06:26;3.00;;;2.22;;
42296;SDS011;28985;47.456;19.016;2022-07-11T07:08:53;1.35;;;1.13;;
42296;SDS011;28985;47.456;19.016;2022-07-11T07:11:19;9.98;;;1.48;;
42296;SDS011;28985;47.456;19.016;2022-07-11T07:13:46;3.60;;;1.00;;
42296;SDS011;28985;47.456;19.016;2022-07-11T07:16:14;1.67;;;1.20;;
42296;SDS011;28985;47.456;19.016;2022-07-11T07:18:40;5.30;;;1.50;;
42296;SDS011;28985;47.456;19.016;2022-07-11T07:21:09;2.17;;;0.73;;
42296;SDS011;28985;47.456;19.016;2022-07-11T07:23:36;2.33;;;1.30;;
42296;SDS011;28985;47.456;19.016;2022-07-11T07:26:03;2.65;;;1.30;;
42296;SDS011;28985;47.456;19.016;2022-07-11T07:28:30;1.50;;;1.42;;
42296;SDS011;28985;47.456;19.016;2022-07-11T07:30:57;1.90;;;1.40;;
42296;SDS011;28985;47.456;19.016;2022-07-11T07:33:25;2.35;;;1.98;;
42296;SDS011;28985;47.456;19.016;2022-07-11T07:36:10;4.10;;;1.52;;
42296;SDS011;28985;47.456;19.016;2022-07-11T07:38:36;3.90;;;1.70;;
42296;SDS011;28985;47.456;19.016;2022-07-11T07:41:03;3.58;;;1.75;;
42296;SDS011;28985;47.456;19.016;2022-07-11T07:43:30;2.72;;;2.53;;
42296;SDS011;28985;47.456;19.016;2022-07-11T07:45:56;3.05;;;1.92;;
42296;SDS011;28985;47.456;19.016;2022-07-11T07:48:23;3.90;;;2.70;;
42296;SDS011;28985;47.456;19.016;2022-07-11T07:50:49;5.07;;;2.85;;
42296;SDS011;28985;47.456;19.016;2022-07-11T07:53:16;4.40;;;2.72;;
42296;SDS011;28985;47.456;19.016;2022-07-11T07:55:42;4.95;;;3.85;;
42296;SDS011;28985;47.456;19.016;2022-07-11T07:58:09;4.80;;;3.78;;
42296;SDS011;28985;47.456;19.016;2022-07-11T08:00:35;4.53;;;3.25;;
42296;SDS011;28985;47.456;19.016;2022-07-11T08:03:21;4.13;;;3.80;;
42296;SDS011;28985;47.456;19.016;2022-07-11T08:05:48;4.43;;;4.22;;
42296;SDS011;28985;47.456;19.016;2022-07-11T08:08:14;3.97;;;3.78;;
42296;SDS011;28985;47.456;19.016;2022-07-11T08:10:41;3.05;;;2.95;;
42296;SDS011;28985;47.456;19.016;2022-07-11T08:13:07;4.45;;;4.15;;
42296;SDS011;28985;47.456;19.016;2022-07-11T08:15:34;4.07;;;3.03;;
42296;SDS011;28985;47.456;19.016;2022-07-11T08:18:01;5.75;;;5.35;;
42296;SDS011;28985;47.456;19.016;2022-07-11T08:20:28;3.63;;;3.05;;
42296;SDS011;28985;47.456;19.016;2022-07-11T08:23:01;6.45;;;5.95;;
42296;SDS011;28985;47.456;19.016;2022-07-11T08:25:30;4.72;;;3.80;;
42296;SDS011;28985;47.456;19.016;2022-07-11T08:27:57;3.90;;;3.70;;
42296;SDS011;28985;47.456;19.016;2022-07-11T08:30:24;4.15;;;3.97;;
42296;SDS011;28985;47.456;19.016;2022-07-11T08:32:51;3.35;;;2.80;;
42296;SDS011;28985;47.456;19.016;2022-07-11T08:35:18;6.57;;;2.97;;
42296;SDS011;28985;47.456;19.016;2022-07-11T08:37:45;3.50;;;3.25;;
42296;SDS011;28985;47.456;19.016;2022-07-11T08:40:12;3.33;;;3.08;;
42296;SDS011;28985;47.456;19.016;2022-07-11T08:42:45;4.85;;;2.97;;
42296;SDS011;28985;47.456;19.016;2022-07-11T08:45:13;3.92;;;2.70;;
42296;SDS011;28985;47.456;19.016;2022-07-11T08:47:40;3.20;;;2.92;;
42296;SDS011;28985;47.456;19.016;2022-07-11T08:50:09;3.88;;;3.58;;
42296;SDS011;28985;47.456;19.016;2022-07-11T08:52:36;2.83;;;2.60;;
42296;SDS011;28985;47.456;19.016;2022-07-11T08:55:04;3.67;;;3.10;;
42296;SDS011;28985;47.456;19.016;2022-07-11T08:57:34;5.32;;;3.40;;
42296;SDS011;28985;47.456;19.016;2022-07-11T09:00:03;4.53;;;4.10;;
42296;SDS011;28985;47.456;19.016;2022-07-11T09:02:32;3.50;;;3.30;;
42296;SDS011;28985;47.456;19.016;2022-07-11T09:05:00;3.45;;;3.17;;
42296;SDS011;28985;47.456;19.016;2022-07-11T09:07:29;4.60;;;4.05;;
42296;SDS011;28985;47.456;19.016;2022-07-11T09:09:56;4.75;;;4.28;;
42296;SDS011;28985;47.456;19.016;2022-07-11T09:12:23;5.55;;;4.55;;
42296;SDS011;28985;47.456;19.016;2022-07-11T09:14:50;4.65;;;4.45;;
42296;SDS011;28985;47.456;19.016;2022-07-11T09:17:29;6.75;;;5.97;;
42296;SDS011;28985;47.456;19.016;2022-07-11T09:19:58;6.10;;;5.80;;
42296;SDS011;28985;47.456;19.016;2022-07-11T09:22:25;5.35;;;5.00;;
42296;SDS011;28985;47.456;19.016;2022-07-11T09:25:13;8.55;;;5.07;;
42296;SDS011;28985;47.456;19.016;2022-07-11T09:27:58;4.93;;;4.50;;
42296;SDS011;28985;47.456;19.016;2022-07-11T09:30:33;5.90;;;5.50;;
42296;SDS011;28985;47.456;19.016;2022-07-11T09:33:06;5.57;;;5.22;;
42296;SDS011;28985;47.456;19.016;2022-07-11T09:38:08;5.40;;;5.10;;
42296;SDS011;28985;47.456;19.016;2022-07-11T09:40:36;5.30;;;4.82;;
42296;SDS011;28985;47.456;19.016;2022-07-11T09:43:04;5.15;;;4.38;;
42296;SDS011;28985;47.456;19.016;2022-07-11T09:45:31;5.70;;;5.13;;
42296;SDS011;28985;47.456;19.016;2022-07-11T09:48:00;5.18;;;4.68;;
42296;SDS011;28985;47.456;19.016;2022-07-11T09:50:55;4.65;;;4.30;;
42296;SDS011;28985;47.456;19.016;2022-07-11T09:53:26;6.53;;;5.97;;
42296;SDS011;28985;47.456;19.016;2022-07-11T09:55:53;7.35;;;6.75;;
42296;SDS011;28985;47.456;19.016;2022-07-11T09:58:20;7.85;;;7.45;;
42296;SDS011;28985;47.456;19.016;2022-07-11T10:00:54;8.57;;;8.05;;
42296;SDS011;28985;47.456;19.016;2022-07-11T10:03:21;9.05;;;8.57;;
42296;SDS011;28985;47.456;19.016;2022-07-11T10:06:09;11.10;;;10.18;;
42296;SDS011;28985;47.456;19.016;2022-07-11T10:08:37;6.72;;;6.40;;
42296;SDS011;28985;47.456;19.016;2022-07-11T10:11:03;6.90;;;6.50;;
42296;SDS011;28985;47.456;19.016;2022-07-11T10:13:30;8.82;;;8.32;;
42296;SDS011;28985;47.456;19.016;2022-07-11T10:15:57;8.73;;;8.30;;
42296;SDS011;28985;47.456;19.016;2022-07-11T10:18:39;7.95;;;7.55;;
42296;SDS011;28985;47.456;19.016;2022-07-11T10:21:17;7.50;;;6.90;;
42296;SDS011;28985;47.456;19.016;2022-07-11T10:27:28;8.57;;;7.82;;
42296;SDS011;28985;47.456;19.016;2022-07-11T10:30:06;9.40;;;9.00;;
42296;SDS011;28985;47.456;19.016;2022-07-11T10:32:47;10.13;;;9.35;;
42296;SDS011;28985;47.456;19.016;2022-07-11T10:35:31;10.52;;;10.00;;
42296;SDS011;28985;47.456;19.016;2022-07-11T10:37:57;11.63;;;10.95;;
42296;SDS011;28985;47.456;19.016;2022-07-11T10:40:44;10.45;;;9.98;;
42296;SDS011;28985;47.456;19.016;2022-07-11T10:43:15;11.77;;;11.18;;
42296;SDS011;28985;47.456;19.016;2022-07-11T10:46:03;10.38;;;9.98;;
42296;SDS011;28985;47.456;19.016;2022-07-11T10:48:33;11.40;;;10.90;;
42296;SDS011;28985;47.456;19.016;2022-07-11T10:51:16;11.15;;;10.35;;
42296;SDS011;28985;47.456;19.016;2022-07-11T10:53:51;10.90;;;10.40;;
42296;SDS011;28985;47.456;19.016;2022-07-11T10:56:43;10.45;;;9.95;;
42296;SDS011;28985;47.456;19.016;2022-07-11T10:59:21;10.55;;;9.95;;
42296;SDS011;28985;47.456;19.016;2022-07-11T11:02:07;10.02;;;9.32;;
42296;SDS011;28985;47.456;19.016;2022-07-11T11:09:56;9.75;;;9.25;;
42296;SDS011;28985;47.456;19.016;2022-07-11T11:15:47;9.57;;;9.15;;
42296;SDS011;28985;47.456;19.016;2022-07-11T11:23:23;11.43;;;10.68;;
42296;SDS011;28985;47.456;19.016;2022-07-11T11:25:51;12.05;;;11.07;;
42296;SDS011;28985;47.456;19.016;2022-07-11T11:28:20;12.70;;;11.98;;
42296;SDS011;28985;47.456;19.016;2022-07-11T11:30:54;11.07;;;10.57;;
42296;SDS011;28985;47.456;19.016;2022-07-11T11:33:22;12.57;;;11.93;;
42296;SDS011;28985;47.456;19.016;2022-07-11T11:36:26;11.75;;;11.15;;
42296;SDS011;28985;47.456;19.016;2022-07-11T11:38:46;11.10;;;10.52;;
42296;SDS011;28985;47.456;19.016;2022-07-11T11:41:13;11.45;;;10.85;;
42296;SDS011;28985;47.456;19.016;2022-07-11T11:43:47;11.38;;;10.60;;
42296;SDS011;28985;47.456;19.016;2022-07-11T11:46:14;10.32;;;9.90;;
42296;SDS011;28985;47.456;19.016;2022-07-11T11:48:42;11.55;;;11.05;;
42296;SDS011;28985;47.456;19.016;2022-07-11T11:51:13;12.60;;;11.90;;
42296;SDS011;28985;47.456;19.016;2022-07-11T11:53:45;12.95;;;12.20;;
42296;SDS011;28985;47.456;19.016;2022-07-11T11:58:59;12.98;;;12.23;;
42296;SDS011;28985;47.456;19.016;2022-07-11T12:01:33;12.98;;;12.07;;
42296;SDS011;28985;47.456;19.016;2022-07-11T12:04:05;14.27;;;13.45;;
42296;SDS011;28985;47.456;19.016;2022-07-11T12:06:34;14.65;;;13.90;;
42296;SDS011;28985;47.456;19.016;2022-07-11T12:11:30;15.60;;;14.82;;
42296;SDS011;28985;47.456;19.016;2022-07-11T12:13:58;18.20;;;17.17;;
42296;SDS011;28985;47.456;19.016;2022-07-11T12:16:26;18.27;;;17.48;;
42296;SDS011;28985;47.456;19.016;2022-07-11T12:19:06;16.08;;;15.23;;
42296;SDS011;28985;47.456;19.016;2022-07-11T12:21:38;15.55;;;14.73;;
42296;SDS011;28985;47.456;19.016;2022-07-11T12:24:08;19.13;;;18.13;;
42296;SDS011;28985;47.456;19.016;2022-07-11T12:26:38;18.80;;;17.90;;
42296;SDS011;28985;47.456;19.016;2022-07-11T12:29:15;20.08;;;19.08;;
42296;SDS011;28985;47.456;19.016;2022-07-11T12:31:49;18.85;;;18.15;;
42296;SDS011;28985;47.456;19.016;2022-07-11T12:34:20;21.15;;;19.92;;
42296;SDS011;28985;47.456;19.016;2022-07-11T12:36:48;22.40;;;21.50;;
42296;SDS011;28985;47.456;19.016;2022-07-11T12:39:25;22.48;;;20.17;;
42296;SDS011;28985;47.456;19.016;2022-07-11T12:41:53;19.10;;;18.25;;
42296;SDS011;28985;47.456;19.016;2022-07-11T12:44:21;22.23;;;21.33;;
42296;SDS011;28985;47.456;19.016;2022-07-11T12:47:22;22.42;;;21.48;;
42296;SDS011;28985;47.456;19.016;2022-07-11T12:49:51;22.15;;;20.95;;
42296;SDS011;28985;47.456;19.016;2022-07-11T12:52:17;18.95;;;18.00;;
42296;SDS011;28985;47.456;19.016;2022-07-11T12:54:44;21.70;;;20.80;;
42296;SDS011;28985;47.456;19.016;2022-07-11T12:57:15;18.15;;;17.35;;
42296;SDS011;28985;47.456;19.016;2022-07-11T12:59:44;18.70;;;17.75;;
42296;SDS011;28985;47.456;19.016;2022-07-11T13:02:11;20.75;;;19.85;;
42296;SDS011;28985;47.456;19.016;2022-07-11T13:04:49;23.90;;;22.52;;
42296;SDS011;28985;47.456;19.016;2022-07-11T13:10:05;19.10;;;18.10;;
42296;SDS011;28985;47.456;19.016;2022-07-11T13:12:32;17.85;;;17.15;;
42296;SDS011;28985;47.456;19.016;2022-07-11T13:15:00;20.05;;;18.95;;
42296;SDS011;28985;47.456;19.016;2022-07-11T13:17:40;15.43;;;14.63;;
42296;SDS011;28985;47.456;19.016;2022-07-11T13:20:09;19.67;;;18.67;;
42296;SDS011;28985;47.456;19.016;2022-07-11T13:22:40;18.55;;;17.73;;
42296;SDS011;28985;47.456;19.016;2022-07-11T13:25:11;18.38;;;17.38;;
42296;SDS011;28985;47.456;19.016;2022-07-11T13:27:39;18.58;;;17.85;;
42296;SDS011;28985;47.456;19.016;2022-07-11T13:30:08;22.80;;;19.70;;
42296;SDS011;28985;47.456;19.016;2022-07-11T13:32:46;17.88;;;16.98;;
42296;SDS011;28985;47.456;19.016;2022-07-11T13:35:13;19.83;;;18.75;;
42296;SDS011;28985;47.456;19.016;2022-07-11T13:37:43;21.58;;;20.45;;
42296;SDS011;28985;47.456;19.016;2022-07-11T13:40:13;20.67;;;19.77;;
42296;SDS011;28985;47.456;19.016;2022-07-11T13:42:44;26.10;;;24.70;;
42296;SDS011;28985;47.456;19.016;2022-07-11T13:45:13;26.50;;;24.98;;
42296;SDS011;28985;47.456;19.016;2022-07-11T13:47:40;25.42;;;24.30;;
42296;SDS011;28985;47.456;19.016;2022-07-11T13:50:07;34.08;;;32.58;;
42296;SDS011;28985;47.456;19.016;2022-07-11T13:52:34;33.58;;;32.22;;
42296;SDS011;28985;47.456;19.016;2022-07-11T13:55:01;35.83;;;34.15;;
42296;SDS011;28985;47.456;19.016;2022-07-11T13:57:28;35.00;;;33.50;;
42296;SDS011;28985;47.456;19.016;2022-07-11T13:59:54;39.20;;;37.65;;
42296;SDS011;28985;47.456;19.016;2022-07-11T14:02:23;37.60;;;35.35;;
42296;SDS011;28985;47.456;19.016;2022-07-11T14:04:51;38.65;;;36.95;;
42296;SDS011;28985;47.456;19.016;2022-07-11T14:07:17;41.60;;;39.55;;
42296;SDS011;28985;47.456;19.016;2022-07-11T14:09:44;38.72;;;37.13;;
42296;SDS011;28985;47.456;19.016;2022-07-11T14:12:10;39.80;;;38.05;;
42296;SDS011;28985;47.456;19.016;2022-07-11T14:14:38;37.67;;;36.05;;
42296;SDS011;28985;47.456;19.016;2022-07-11T14:17:05;36.83;;;35.05;;
42296;SDS011;28985;47.456;19.016;2022-07-11T14:19:32;32.55;;;31.08;;
42296;SDS011;28985;47.456;19.016;2022-07-11T14:21:59;29.98;;;28.70;;
42296;SDS011;28985;47.456;19.016;2022-07-11T14:24:25;27.90;;;26.60;;
42296;SDS011;28985;47.456;19.016;2022-07-11T14:26:53;25.52;;;24.50;;
42296;SDS011;28985;47.456;19.016;2022-07-11T14:29:19;23.88;;;22.98;;
42296;SDS011;28985;47.456;19.016;2022-07-11T14:31:46;25.70;;;24.52;;
42296;SDS011;28985;47.456;19.016;2022-07-11T14:34:13;24.17;;;22.90;;
42296;SDS011;28985;47.456;19.016;2022-07-11T14:36:39;23.55;;;22.45;;
42296;SDS011;28985;47.456;19.016;2022-07-11T14:39:06;24.50;;;23.70;;
42296;SDS011;28985;47.456;19.016;2022-07-11T14:41:32;26.00;;;24.83;;
42296;SDS011;28985;47.456;19.016;2022-07-11T14:43:59;20.02;;;19.13;;
42296;SDS011;28985;47.456;19.016;2022-07-11T14:46:27;20.67;;;19.50;;
42296;SDS011;28985;47.456;19.016;2022-07-11T14:48:53;19.80;;;18.90;;
42296;SDS011;28985;47.456;19.016;2022-07-11T14:51:20;19.85;;;18.70;;
42296;SDS011;28985;47.456;19.016;2022-07-11T14:54:07;20.45;;;19.45;;
42296;SDS011;28985;47.456;19.016;2022-07-11T14:56:34;28.23;;;26.88;;
42296;SDS011;28985;47.456;19.016;2022-07-11T14:59:00;19.48;;;18.67;;
42296;SDS011;28985;47.456;19.016;2022-07-11T15:01:27;23.10;;;22.05;;
42296;SDS011;28985;47.456;19.016;2022-07-11T15:03:54;23.63;;;22.40;;
42296;SDS011;28985;47.456;19.016;2022-07-11T15:06:21;20.88;;;19.88;;
42296;SDS011;28985;47.456;19.016;2022-07-11T15:09:07;19.50;;;17.98;;